createdAt,value
2023-01-10T00:03:48.666Z,3
2023-01-10T00:09:43.962Z,3.4
2023-01-10T00:15:41.313Z,3.9
2023-01-10T00:22:07.166Z,3.5
2023-01-10T00:28:00.225Z,3.5
2023-01-10T00:33:51.528Z,3.9
2023-01-10T00:39:51.791Z,3.6
2023-01-10T00:46:21.259Z,3.8
2023-01-10T00:58:49.042Z,4.1
2023-01-10T01:04:45.111Z,3.9
2023-01-10T01:10:40.403Z,4.3
2023-01-10T01:16:37.262Z,4.2
2023-01-10T01:29:22.441Z,4.6
2023-01-10T01:35:48.942Z,4.5
2023-01-10T01:48:28.772Z,5.3
2023-01-10T01:54:32.451Z,4.9
2023-01-10T02:01:00.057Z,5.1
2023-01-10T02:07:04.202Z,5
2023-01-10T02:13:07.603Z,5.6
2023-01-10T02:19:12.092Z,5.9
2023-01-10T02:25:49.270Z,5.6
2023-01-10T02:32:12.131Z,5.9
2023-01-10T02:38:30.843Z,5.3
2023-01-10T02:44:32.822Z,5.2
2023-01-10T02:50:39.532Z,5.3
2023-01-10T03:02:50.992Z,5.2
2023-01-10T03:08:46.401Z,4.5
2023-01-10T03:14:38.955Z,4.4
2023-01-10T03:20:35.334Z,5
2023-01-10T03:26:55.883Z,4.6
2023-01-10T03:33:16.971Z,4.9
2023-01-10T03:45:21.588Z,4
2023-01-10T03:51:44.399Z,4.8
2023-01-10T03:58:00.156Z,4.3
2023-01-10T04:03:54.949Z,4.7
2023-01-10T04:10:05.887Z,4.3
2023-01-10T04:16:04.606Z,5.5
2023-01-10T04:21:59.738Z,4.2
2023-01-10T04:27:57.231Z,4.4
2023-01-10T04:33:53.848Z,4.3
2023-01-10T04:40:09.741Z,3.9
2023-01-10T04:46:24.386Z,5.1
2023-01-10T04:52:26.035Z,4.6
2023-01-10T04:58:17.378Z,4.3
2023-01-10T05:04:13.252Z,4.4
2023-01-10T05:10:07.802Z,4.6
2023-01-10T05:15:56.576Z,4.2
2023-01-10T05:21:47.678Z,5.3
2023-01-10T05:27:38.221Z,4.2
2023-01-10T05:33:29.303Z,4.2
2023-01-10T05:39:19.799Z,4.6
2023-01-10T05:45:10.385Z,4.7
2023-01-10T05:51:02.853Z,4.7
2023-01-10T05:56:53.707Z,4.7
2023-01-10T06:02:44.987Z,5
2023-01-10T06:10:53.992Z,5.8
2023-01-10T06:16:43.209Z,6
2023-01-10T06:22:33.679Z,5.5
2023-01-10T06:28:25.386Z,4.9
2023-01-10T06:34:16.612Z,5
2023-01-10T06:40:08.535Z,4.9
2023-01-10T06:45:59.243Z,5.2
2023-01-10T06:51:51.242Z,5.6
2023-01-10T06:57:42.105Z,5.5
2023-01-10T07:03:33.700Z,5.2
2023-01-10T07:09:26.169Z,6.2
2023-01-10T07:15:17.581Z,6.6
2023-01-10T07:21:08.367Z,5.2
2023-01-10T07:28:09.209Z,5.8
2023-01-10T07:33:59.728Z,4.6
2023-01-10T07:39:50.534Z,5.7
2023-01-10T07:45:40.823Z,7
2023-01-10T07:51:30.705Z,6.9
2023-01-10T07:57:21.345Z,12.1
2023-01-10T08:03:13.983Z,8.8
2023-01-10T08:09:05.765Z,8.5
2023-01-10T08:14:56.679Z,7.8
2023-01-10T08:20:48.532Z,8.6
2023-01-10T08:26:39.513Z,9
2023-01-10T08:32:32.325Z,9.4
2023-01-10T08:38:23.308Z,10.2
2023-01-10T08:44:15.636Z,10.3
2023-01-10T08:50:09.907Z,13.5
2023-01-10T08:55:59.906Z,14.8
2023-01-10T09:01:51.192Z,14.5
2023-01-10T09:07:42.508Z,12.9
2023-01-10T09:13:33.143Z,9.8
2023-01-10T09:19:23.619Z,12.8
2023-01-10T09:25:15.220Z,13
2023-01-10T09:31:06.806Z,11.1
2023-01-10T09:36:57.965Z,8.6
2023-01-10T09:42:48.666Z,7.6
2023-01-10T09:48:41.485Z,5.5
2023-01-10T09:54:32.683Z,5.4
2023-01-10T10:00:24.124Z,5.4
2023-01-10T10:06:18.395Z,4.4
2023-01-10T10:12:09.614Z,5
2023-01-10T10:18:00.966Z,4.1
2023-01-10T10:23:52.127Z,3.8
2023-01-10T10:29:44.847Z,3.7
2023-01-10T10:35:35.885Z,4.5
2023-01-10T10:41:27.369Z,4.1
2023-01-10T10:47:18.204Z,4.8
2023-01-10T10:53:11.273Z,4.4
2023-01-10T10:59:03.629Z,3.6
2023-01-10T11:04:54.388Z,4.4
2023-01-10T11:10:45.366Z,3.8
2023-01-10T11:16:34.768Z,3.5
2023-01-10T11:22:24.500Z,3.9
2023-01-10T11:28:17.368Z,4.3
2023-01-10T11:34:09.245Z,3.8
2023-01-10T11:39:58.933Z,3.9
2023-01-10T11:45:49.672Z,4.4
2023-01-10T11:51:40.221Z,4.2
2023-01-10T11:59:53.562Z,3.6
2023-01-10T12:05:44.993Z,3.2
2023-01-10T12:11:36.828Z,4.1
2023-01-10T12:17:27.670Z,3.8
2023-01-10T12:23:19.608Z,4
2023-01-10T12:29:11.737Z,3.7
2023-01-10T12:35:04.875Z,4.5
2023-01-10T12:41:01.014Z,3.5
2023-01-10T12:47:17.474Z,3.5
2023-01-10T12:53:06.990Z,4.3
2023-01-10T12:58:57.200Z,3.9
2023-01-10T13:04:47.026Z,4.4
2023-01-10T13:10:38.269Z,3.8
2023-01-10T13:16:29.815Z,3.7
2023-01-10T13:22:21.123Z,3.7
2023-01-10T13:28:11.242Z,3.6
2023-01-10T13:34:06.458Z,4
2023-01-10T13:39:57.325Z,3.8
2023-01-10T13:45:51.241Z,5.1
2023-01-10T13:51:41.991Z,3.7
2023-01-10T13:57:34.837Z,3.4
2023-01-10T14:04:33.025Z,5.2
2023-01-10T14:10:23.959Z,3.5
2023-01-10T14:16:14.578Z,4.6
2023-01-10T14:22:06.508Z,3.9
2023-01-10T14:29:11.380Z,4.1
2023-01-10T14:35:01.726Z,4.9
2023-01-10T14:40:52.914Z,3.8
2023-01-10T14:46:43.020Z,3.8
2023-01-10T14:52:33.237Z,4.1
2023-01-10T14:58:22.660Z,4.4
2023-01-10T15:04:13.469Z,3.9
2023-01-10T15:10:06.337Z,4.2
2023-01-10T15:16:04.192Z,4
2023-01-10T15:22:19.609Z,4.1
2023-01-10T15:28:35.131Z,4.4
2023-01-10T15:34:34.062Z,4.4
2023-01-10T15:47:02.568Z,4.7
2023-01-10T16:06:22.609Z,5.3
2023-01-10T16:12:30.114Z,5
2023-01-10T16:18:57.403Z,3.9
2023-01-10T16:25:04.515Z,4.7
2023-01-10T16:44:06.825Z,4.2
2023-01-10T16:50:00.896Z,4.1
2023-01-10T17:02:20.134Z,4.3
2023-01-10T17:08:32.971Z,4
2023-01-10T17:14:59.320Z,4
2023-01-10T17:27:32.586Z,4
2023-01-10T17:33:43.996Z,4.3
2023-01-10T17:40:05.073Z,4.5
2023-01-10T17:46:24.154Z,3.8
2023-01-10T17:52:34.167Z,4.2
2023-01-10T17:58:24.638Z,4.6
2023-01-10T18:04:28.207Z,4.2
2023-01-10T18:10:21.951Z,4
2023-01-10T18:16:43.517Z,5.7
2023-01-10T18:22:54.343Z,5.6
2023-01-10T18:36:06.427Z,5.3
2023-01-10T18:49:09.341Z,4.9
2023-01-10T18:55:36.602Z,4.9
2023-01-10T19:01:52.551Z,3.3
2023-01-10T19:15:00.538Z,2.8
2023-01-10T19:21:10.799Z,2.8
2023-01-10T19:27:17.645Z,2.6
2023-01-10T19:33:58.626Z,4.4
2023-01-10T19:40:45.097Z,3.9
2023-01-10T20:11:00.282Z,1.6
2023-01-10T20:24:18.051Z,1.6
2023-01-10T20:30:44.960Z,1.5
2023-01-10T20:36:58.716Z,1.6
2023-01-10T20:42:55.647Z,1.4
2023-01-10T20:48:49.215Z,1.8
2023-01-10T20:55:08.837Z,1.6
2023-01-10T21:01:44.072Z,1.6
2023-01-10T21:14:06.815Z,2
2023-01-10T21:19:56.446Z,1.7
2023-01-10T21:25:47.813Z,1.6
2023-01-10T21:31:39.921Z,1.5
2023-01-10T21:37:32.343Z,1.3
2023-01-10T21:43:27.570Z,1.8
2023-01-10T21:49:18.286Z,2.4
2023-01-10T21:55:08.644Z,2.2
2023-01-10T22:00:58.539Z,2.1
2023-01-10T22:06:49.436Z,1.8
2023-01-10T22:12:39.651Z,3.1
2023-01-10T22:18:30.279Z,2.3
2023-01-10T22:24:18.777Z,2
2023-01-10T22:30:09.665Z,2.2
2023-01-10T22:36:00.104Z,1.5
2023-01-10T22:41:48.911Z,1.9
2023-01-10T22:47:42.389Z,1.3
2023-01-10T22:53:32.132Z,1.7
2023-01-10T22:59:22.935Z,1.3
2023-01-10T23:05:14.520Z,1.4
2023-01-10T23:11:04.607Z,1.9
2023-01-10T23:16:55.487Z,1.8
2023-01-10T23:22:45.612Z,2
2023-01-10T23:28:35.906Z,1.8
2023-01-10T23:34:26.151Z,2
2023-01-10T23:40:16.998Z,1.9
2023-01-10T23:46:07.986Z,1.4
2023-01-10T23:51:59.545Z,1.5
2023-01-10T23:57:49.923Z,1.5
